Time;durP1;ratioP1;P1;durP2;ratioP2;P2;SDS_P1;SDS_P2;PMS_P1;PMS_P2;Temp;Humidity;BMP_temperature;BMP_pressure;BME280_temperature;BME280_humidity;BME280_pressure;Samples;Min_cycle;Max_cycle;Signal;HPM_P1;HPM_P2
2022/08/17 00:01:08;;;;;;;10.40;5.78;;;19.70;99.90;;;;;;5067476;28;20512;-75
2022/08/17 00:03:37;;;;;;;11.55;5.35;;;19.70;99.70;;;;;;5084407;28;20047;-75
2022/08/17 00:06:19;;;;;;;11.10;5.90;;;19.80;99.80;;;;;;5083440;28;20397;-75
2022/08/17 00:08:49;;;;;;;9.88;6.18;;;19.80;99.90;;;;;;5080958;28;20041;-75
2022/08/17 00:11:22;;;;;;;11.15;6.15;;;19.90;99.90;;;;;;5085577;28;20118;-75
2022/08/17 00:13:53;;;;;;;13.77;6.45;;;19.90;99.90;;;;;;5085308;28;20181;-75
2022/08/17 00:16:24;;;;;;;12.98;6.50;;;19.90;99.90;;;;;;5083759;28;20035;-75
2022/08/17 00:18:51;;;;;;;10.95;5.53;;;20.00;99.90;;;;;;5068329;28;20040;-75
2022/08/17 00:21:21;;;;;;;10.32;5.88;;;19.90;99.90;;;;;;5068634;28;20069;-75
2022/08/17 00:23:47;;;;;;;12.20;5.18;;;19.80;99.90;;;;;;5083030;28;20073;-75
2022/08/17 00:26:13;;;;;;;10.82;5.78;;;19.80;99.90;;;;;;5094273;28;20497;-75
2022/08/17 00:28:39;;;;;;;11.50;5.93;;;19.70;99.90;;;;;;5063975;28;20046;-75
2022/08/17 00:31:08;;;;;;;11.55;6.30;;;19.70;99.90;;;;;;5065878;28;20054;-75
2022/08/17 00:33:34;;;;;;;11.90;6.38;;;19.70;99.90;;;;;;5067323;28;20048;-75
2022/08/17 00:36:00;;;;;;;11.25;6.32;;;19.70;99.90;;;;;;5080589;28;20066;-75
2022/08/17 00:38:27;;;;;;;12.23;6.13;;;19.60;99.90;;;;;;5075505;28;20155;-75
2022/08/17 00:40:59;;;;;;;14.32;6.95;;;19.60;99.90;;;;;;5083127;28;20039;-75
2022/08/17 00:43:33;;;;;;;11.75;6.32;;;19.50;99.90;;;;;;5065729;28;20072;-75
2022/08/17 00:46:06;;;;;;;10.63;6.50;;;19.50;99.90;;;;;;5065145;28;20043;-75
2022/08/17 00:48:32;;;;;;;12.65;6.78;;;19.50;99.90;;;;;;5100044;28;20135;-75
2022/08/17 00:51:15;;;;;;;11.45;6.35;;;19.40;99.90;;;;;;5084152;28;20040;-75
2022/08/17 00:53:46;;;;;;;10.73;6.10;;;19.40;99.90;;;;;;5082930;28;20218;-75
2022/08/17 00:56:19;;;;;;;13.68;7.10;;;19.40;99.90;;;;;;5064757;28;20189;-75
2022/08/17 00:58:47;;;;;;;12.13;6.68;;;19.50;99.90;;;;;;5065852;28;20396;-75
2022/08/17 01:01:13;;;;;;;8.95;6.05;;;19.50;99.90;;;;;;5084247;28;20050;-75
2022/08/17 01:03:40;;;;;;;11.30;6.05;;;19.50;99.90;;;;;;5069227;28;20028;-75
2022/08/17 01:06:08;;;;;;;12.77;6.75;;;19.40;99.90;;;;;;5080524;28;20036;-75
2022/08/17 01:08:35;;;;;;;11.75;6.22;;;19.40;99.90;;;;;;5087415;28;20032;-75
2022/08/17 01:11:01;;;;;;;12.35;6.30;;;19.40;99.90;;;;;;5085578;28;20085;-75
2022/08/17 01:13:31;;;;;;;11.25;6.75;;;19.40;99.90;;;;;;5085725;28;20036;-75
2022/08/17 01:16:03;;;;;;;10.27;6.45;;;19.40;99.90;;;;;;5070420;28;20039;-75
2022/08/17 01:18:29;;;;;;;9.48;4.85;;;19.40;99.90;;;;;;5070478;28;20051;-75
2022/08/17 01:20:58;;;;;;;8.13;4.90;;;19.30;99.90;;;;;;5079291;28;20454;-75
2022/08/17 01:23:25;;;;;;;11.65;6.60;;;19.30;99.90;;;;;;5067575;28;20044;-75
2022/08/17 01:25:54;;;;;;;16.38;7.45;;;19.30;99.90;;;;;;5067739;28;20032;-75
2022/08/17 01:28:22;;;;;;;10.60;6.43;;;19.20;99.90;;;;;;5065473;28;20390;-75
2022/08/17 01:30:50;;;;;;;13.77;6.75;;;19.30;99.90;;;;;;5064099;28;20516;-75
2022/08/17 01:33:15;;;;;;;14.50;7.60;;;19.20;99.90;;;;;;5063095;28;20032;-75
2022/08/17 01:35:41;;;;;;;12.27;6.82;;;19.10;99.90;;;;;;5066294;28;20173;-75
2022/08/17 01:38:08;;;;;;;12.75;6.75;;;19.10;99.90;;;;;;5065156;28;20123;-75
2022/08/17 01:40:41;;;;;;;14.52;7.05;;;19.10;99.90;;;;;;5047582;28;20047;-75
2022/08/17 01:43:18;;;;;;;14.80;7.28;;;19.00;99.90;;;;;;5068242;28;20032;-75
2022/08/17 01:45:47;;;;;;;13.57;7.15;;;19.00;99.90;;;;;;5049723;28;20063;-75
2022/08/17 01:48:13;;;;;;;13.90;7.07;;;19.00;99.90;;;;;;5063322;28;20059;-75
2022/08/17 01:50:41;;;;;;;13.90;7.63;;;19.00;99.90;;;;;;5064941;28;20044;-75
2022/08/17 01:53:14;;;;;;;14.40;7.20;;;18.90;99.90;;;;;;5048072;28;20036;-75
2022/08/17 01:55:47;;;;;;;11.02;6.53;;;18.90;99.90;;;;;;5064506;28;20062;-75
2022/08/17 01:58:12;;;;;;;11.40;6.30;;;18.90;99.90;;;;;;5070181;28;20235;-75
2022/08/17 02:00:39;;;;;;;10.80;6.13;;;18.90;99.90;;;;;;5064890;28;20577;-75
2022/08/17 02:03:07;;;;;;;16.10;7.15;;;18.90;99.90;;;;;;5066459;28;20513;-75
2022/08/17 02:05:32;;;;;;;11.68;6.20;;;18.90;99.90;;;;;;5062730;28;20064;-75
2022/08/17 02:07:58;;;;;;;12.75;6.35;;;18.90;99.90;;;;;;5067269;28;20737;-75
2022/08/17 02:10:25;;;;;;;13.35;6.53;;;18.90;99.90;;;;;;5066395;28;20406;-75
2022/08/17 02:12:51;;;;;;;12.40;6.63;;;18.90;99.90;;;;;;5065632;28;20047;-75
2022/08/17 02:15:17;;;;;;;11.07;6.20;;;18.90;99.90;;;;;;5066057;28;20028;-75
2022/08/17 02:17:43;;;;;;;11.07;6.38;;;19.00;99.90;;;;;;5064018;28;20040;-75
2022/08/17 02:20:09;;;;;;;11.95;6.68;;;18.90;99.90;;;;;;5067760;28;20422;-75
2022/08/17 02:22:38;;;;;;;12.27;6.90;;;19.00;99.90;;;;;;5086548;28;20629;-75
2022/08/17 02:25:05;;;;;;;12.65;6.75;;;19.00;99.90;;;;;;5098780;28;20123;-75
2022/08/17 02:27:31;;;;;;;14.45;7.10;;;19.00;99.90;;;;;;5085069;28;20040;-75
2022/08/17 02:29:58;;;;;;;12.98;6.90;;;19.00;99.90;;;;;;5068127;28;20631;-75
2022/08/17 02:32:25;;;;;;;14.27;6.97;;;19.00;99.90;;;;;;5086406;28;20175;-75
2022/08/17 02:34:51;;;;;;;13.15;7.05;;;19.00;99.90;;;;;;5085816;28;20040;-75
2022/08/17 02:37:17;;;;;;;13.73;7.47;;;19.00;99.90;;;;;;5067823;28;20028;-75
2022/08/17 02:39:44;;;;;;;11.52;6.20;;;19.00;99.90;;;;;;5067929;28;20105;-75
2022/08/17 02:42:11;;;;;;;12.23;6.60;;;19.00;99.90;;;;;;5085380;28;20035;-75
2022/08/17 02:44:37;;;;;;;13.07;7.00;;;19.00;99.90;;;;;;5070965;28;20122;-75
2022/08/17 02:47:03;;;;;;;13.45;6.22;;;19.00;99.90;;;;;;5085926;28;20119;-75
2022/08/17 02:49:29;;;;;;;14.23;6.57;;;19.00;99.90;;;;;;5088326;28;20093;-75
2022/08/17 02:51:56;;;;;;;11.85;6.20;;;19.10;99.90;;;;;;5087317;28;20517;-75
2022/08/17 02:54:22;;;;;;;10.77;5.85;;;19.10;99.90;;;;;;5062807;28;20040;-75
2022/08/17 02:56:48;;;;;;;9.30;6.05;;;19.10;99.90;;;;;;5084384;28;20036;-75
2022/08/17 02:59:13;;;;;;;10.98;5.55;;;19.00;99.90;;;;;;5087948;28;20089;-75
2022/08/17 03:01:39;;;;;;;11.43;6.80;;;19.00;99.90;;;;;;5083707;28;21705;-74
2022/08/17 03:04:05;;;;;;;11.98;6.68;;;19.00;99.90;;;;;;5085190;28;20085;-74
2022/08/17 03:06:30;;;;;;;11.05;6.03;;;19.00;99.90;;;;;;5087130;28;20036;-75
2022/08/17 03:08:56;;;;;;;13.05;6.57;;;19.10;99.90;;;;;;5082421;28;20036;-75
2022/08/17 03:11:22;;;;;;;9.68;5.82;;;19.00;99.90;;;;;;5067454;28;20481;-75
2022/08/17 03:13:48;;;;;;;10.60;5.85;;;19.00;99.90;;;;;;5085043;28;20044;-75
2022/08/17 03:16:14;;;;;;;10.75;5.35;;;18.90;99.90;;;;;;5086651;28;20066;-74
2022/08/17 03:18:40;;;;;;;10.38;5.78;;;18.90;99.90;;;;;;5068943;28;20028;-74
2022/08/17 03:21:07;;;;;;;11.25;5.50;;;18.90;99.90;;;;;;5086498;28;20051;-75
2022/08/17 03:23:33;;;;;;;12.32;6.90;;;18.90;99.90;;;;;;5082815;28;20744;-75
2022/08/17 03:25:59;;;;;;;10.98;6.28;;;18.90;99.90;;;;;;5082558;28;20040;-75
2022/08/17 03:28:27;;;;;;;9.88;5.80;;;18.90;99.90;;;;;;5067043;28;20048;-75
2022/08/17 03:30:53;;;;;;;11.50;6.57;;;18.90;99.90;;;;;;5071250;28;20555;-75
2022/08/17 03:33:19;;;;;;;12.90;7.07;;;18.90;99.90;;;;;;5087144;28;20036;-74
2022/08/17 03:35:45;;;;;;;11.00;6.13;;;18.80;99.90;;;;;;5083167;28;20547;-75
2022/08/17 03:38:13;;;;;;;9.80;5.70;;;18.90;99.90;;;;;;5067660;28;20032;-74
2022/08/17 03:40:39;;;;;;;12.27;6.43;;;18.90;99.90;;;;;;5083453;28;20038;-74
2022/08/17 03:43:09;;;;;;;11.75;6.57;;;18.90;99.90;;;;;;5082333;28;20028;-74
2022/08/17 03:56:50;;;;;;;10.60;5.63;;;18.80;99.90;;;;;;5085560;28;20048;-74
2022/08/17 03:59:20;;;;;;;11.15;5.85;;;18.70;99.90;;;;;;5085951;28;20449;-74
2022/08/17 04:01:50;;;;;;;11.23;6.38;;;18.70;99.90;;;;;;5068644;28;20070;-75
2022/08/17 04:04:17;;;;;;;12.35;6.72;;;18.70;99.90;;;;;;5083543;28;20032;-74
2022/08/17 04:06:43;;;;;;;9.10;5.22;;;18.70;99.90;;;;;;5068921;28;20062;-75
2022/08/17 04:09:09;;;;;;;10.13;6.15;;;18.70;99.90;;;;;;5066365;28;20044;-74
2022/08/17 04:11:35;;;;;;;13.73;6.90;;;18.70;99.90;;;;;;5069078;28;20494;-74
2022/08/17 04:14:02;;;;;;;12.15;6.57;;;18.70;99.90;;;;;;5082293;28;20042;-75
2022/08/17 04:16:28;;;;;;;14.20;6.75;;;18.70;99.90;;;;;;5079965;28;20071;-74
2022/08/17 04:18:54;;;;;;;11.00;6.18;;;18.70;99.90;;;;;;5082405;28;20074;-74
2022/08/17 04:21:20;;;;;;;13.25;7.05;;;18.70;99.90;;;;;;5082832;28;20202;-75
2022/08/17 04:23:46;;;;;;;12.40;6.50;;;18.80;99.90;;;;;;5080488;28;20047;-74
2022/08/17 04:26:13;;;;;;;11.75;6.25;;;18.70;99.90;;;;;;5083968;28;20047;-74
2022/08/17 04:28:40;;;;;;;10.77;6.07;;;18.70;99.90;;;;;;5065340;28;20178;-74
2022/08/17 04:31:05;;;;;;;13.60;7.13;;;18.70;99.90;;;;;;5067794;28;20040;-74
2022/08/17 04:33:31;;;;;;;10.95;6.38;;;18.80;99.90;;;;;;5084581;28;20485;-75
2022/08/17 04:36:02;;;;;;;10.82;6.18;;;18.80;99.90;;;;;;5084170;28;20036;-74
2022/08/17 04:38:31;;;;;;;14.43;7.28;;;18.80;99.90;;;;;;5082883;28;20063;-74
2022/08/17 04:43:44;;;;;;;12.80;6.60;;;18.80;99.90;;;;;;5084086;28;20044;-74
2022/08/17 04:46:13;;;;;;;16.80;7.20;;;18.80;99.90;;;;;;5065184;28;20093;-74
2022/08/17 04:48:42;;;;;;;14.35;6.47;;;18.80;99.90;;;;;;5067075;28;20082;-75
2022/08/17 04:51:14;;;;;;;11.45;5.97;;;18.80;99.90;;;;;;5084494;28;20051;-74
2022/08/17 04:53:41;;;;;;;11.13;6.10;;;18.80;99.90;;;;;;5083290;28;20043;-74
2022/08/17 04:56:08;;;;;;;10.38;5.80;;;18.80;99.90;;;;;;5084174;28;20089;-74
2022/08/17 04:58:34;;;;;;;13.27;7.05;;;18.90;99.90;;;;;;5066220;28;20556;-74
2022/08/17 05:01:00;;;;;;;12.30;6.30;;;18.90;99.90;;;;;;5082855;28;20036;-74
2022/08/17 05:03:26;;;;;;;10.35;6.32;;;18.90;99.90;;;;;;5083472;28;20119;-73
2022/08/17 05:05:52;;;;;;;13.23;6.97;;;18.90;99.90;;;;;;5084674;28;20736;-73
2022/08/17 05:08:19;;;;;;;11.38;6.05;;;18.80;99.90;;;;;;5067767;28;20040;-73
2022/08/17 05:10:45;;;;;;;13.63;7.25;;;18.80;99.90;;;;;;5064634;28;20044;-73
2022/08/17 05:13:18;;;;;;;11.27;5.65;;;18.80;99.90;;;;;;5082672;28;20036;-73
2022/08/17 05:15:45;;;;;;;14.88;6.68;;;18.80;99.90;;;;;;5083889;28;20476;-73
2022/08/17 05:18:11;;;;;;;13.88;6.90;;;18.80;99.90;;;;;;5084181;28;20036;-73
2022/08/17 05:20:38;;;;;;;11.45;6.55;;;18.80;99.90;;;;;;5082029;28;20537;-73
2022/08/17 05:23:07;;;;;;;14.15;7.43;;;18.80;99.90;;;;;;5078836;28;20040;-73
2022/08/17 05:25:38;;;;;;;12.32;6.32;;;18.80;99.90;;;;;;5065370;28;20123;-73
2022/08/17 05:28:05;;;;;;;12.02;6.43;;;18.80;99.90;;;;;;5079914;28;20175;-73
2022/08/17 05:30:32;;;;;;;12.23;6.47;;;18.90;99.90;;;;;;5082559;28;20040;-73
2022/08/17 05:33:01;;;;;;;12.40;6.07;;;18.90;99.90;;;;;;5097652;28;20097;-70
2022/08/17 05:35:30;;;;;;;18.60;6.90;;;18.90;99.90;;;;;;5084157;28;20090;-73
2022/08/17 05:37:56;;;;;;;11.48;6.07;;;18.90;99.90;;;;;;5076448;28;20136;-73
2022/08/17 05:40:22;;;;;;;15.02;7.28;;;18.90;99.90;;;;;;5079352;28;20048;-73
2022/08/17 05:42:48;;;;;;;12.27;7.40;;;18.90;99.90;;;;;;5067965;28;20117;-73
2022/08/17 05:45:15;;;;;;;13.43;6.70;;;18.90;99.90;;;;;;5100578;28;20496;-73
2022/08/17 05:47:43;;;;;;;16.13;7.75;;;18.90;99.90;;;;;;5063366;28;20154;-73
2022/08/17 05:50:12;;;;;;;16.15;7.55;;;18.90;99.90;;;;;;5085052;28;20495;-73
2022/08/17 05:52:46;;;;;;;14.15;7.45;;;18.80;99.90;;;;;;5085841;28;20066;-73
2022/08/17 05:55:56;;;;;;;15.73;7.43;;;18.80;99.90;;;;;;5079229;28;20432;-73
2022/08/17 05:58:52;;;;;;;13.85;7.07;;;18.80;99.90;;;;;;5084508;28;20123;-73
2022/08/17 06:01:48;;;;;;;13.40;7.10;;;18.70;99.90;;;;;;5076110;28;20051;-73
2022/08/17 06:04:51;;;;;;;13.90;7.35;;;18.80;99.90;;;;;;5064321;28;20154;-73
2022/08/17 06:07:35;;;;;;;13.65;7.03;;;18.80;99.90;;;;;;5088346;28;20059;-73
2022/08/17 06:10:04;;;;;;;16.67;7.88;;;18.80;99.90;;;;;;5086699;28;20914;-73
2022/08/17 06:12:39;;;;;;;15.15;7.38;;;18.80;99.90;;;;;;5069199;28;20072;-74
2022/08/17 06:15:13;;;;;;;15.65;8.38;;;18.70;99.90;;;;;;5068281;28;20067;-73
2022/08/17 06:17:40;;;;;;;15.25;7.78;;;18.70;99.90;;;;;;5075864;28;20112;-73
2022/08/17 06:20:14;;;;;;;15.32;8.18;;;18.80;99.90;;;;;;5066876;28;20055;-74
2022/08/17 06:22:51;;;;;;;16.85;7.78;;;18.80;99.90;;;;;;5077595;28;20040;-72
2022/08/17 06:25:23;;;;;;;13.55;7.45;;;18.80;99.90;;;;;;5083992;28;20710;-72
2022/08/17 06:27:54;;;;;;;17.33;8.70;;;18.70;99.90;;;;;;5100098;27;20075;-73
2022/08/17 06:30:27;;;;;;;16.58;8.57;;;18.80;99.90;;;;;;5070042;28;20366;-73
2022/08/17 06:32:58;;;;;;;18.77;8.48;;;18.80;99.90;;;;;;5103102;27;20097;-73
2022/08/17 06:35:43;;;;;;;17.45;8.20;;;18.80;99.90;;;;;;5083383;28;20148;-73
2022/08/17 06:38:16;;;;;;;17.55;9.05;;;18.80;99.90;;;;;;5070326;28;20757;-73
2022/08/17 06:41:03;;;;;;;18.98;8.88;;;18.80;99.90;;;;;;5066731;28;20036;-73
2022/08/17 06:43:59;;;;;;;19.45;8.55;;;18.80;99.90;;;;;;5080656;28;20032;-73
2022/08/17 06:46:49;;;;;;;17.13;8.52;;;18.90;99.90;;;;;;5086190;28;20059;-72
2022/08/17 06:49:25;;;;;;;21.52;10.27;;;18.90;99.90;;;;;;5088178;28;20051;-73
2022/08/17 06:52:17;;;;;;;22.83;9.93;;;18.90;99.90;;;;;;5093746;27;20079;-73
2022/08/17 06:54:59;;;;;;;19.08;8.82;;;19.00;99.90;;;;;;5083881;28;20051;-73
2022/08/17 06:57:28;;;;;;;18.77;9.63;;;19.00;99.90;;;;;;5086041;28;20094;-73
2022/08/17 07:00:06;;;;;;;17.30;8.77;;;19.00;99.90;;;;;;5117591;27;20032;-73
2022/08/17 07:03:08;;;;;;;20.02;9.93;;;19.00;99.90;;;;;;5098581;27;20516;-73
2022/08/17 07:05:43;;;;;;;16.45;8.02;;;19.10;99.90;;;;;;5098341;27;20493;-72
2022/08/17 07:08:37;;;;;;;21.52;9.05;;;19.20;99.90;;;;;;5080983;28;20093;-73
2022/08/17 07:11:09;;;;;;;19.85;8.88;;;19.10;99.90;;;;;;5083709;28;20489;-72
2022/08/17 07:14:02;;;;;;;18.58;8.95;;;19.20;99.90;;;;;;5083424;28;20035;-73
2022/08/17 07:16:50;;;;;;;18.08;8.52;;;19.30;99.90;;;;;;5084852;28;20069;-73
2022/08/17 07:19:18;;;;;;;18.77;8.07;;;19.30;99.90;;;;;;5069770;28;20414;-73
2022/08/17 07:22:09;;;;;;;17.67;8.70;;;19.40;99.90;;;;;;5081901;28;20051;-74
2022/08/17 07:24:57;;;;;;;18.92;9.45;;;19.40;99.90;;;;;;5085692;28;20083;-73
2022/08/17 07:27:44;;;;;;;19.10;9.50;;;19.40;99.90;;;;;;5085128;28;20032;-73
2022/08/17 07:30:33;;;;;;;19.63;8.57;;;19.50;99.90;;;;;;5084102;28;20036;-73
2022/08/17 07:33:11;;;;;;;22.00;9.65;;;19.50;99.90;;;;;;5082250;28;20090;-73
2022/08/17 07:35:39;;;;;;;19.27;8.88;;;19.50;99.90;;;;;;5084649;28;20051;-72
2022/08/17 07:38:23;;;;;;;16.80;8.00;;;19.50;99.90;;;;;;5084580;28;20039;-72
2022/08/17 07:41:03;;;;;;;19.35;8.88;;;19.50;99.90;;;;;;5085173;28;20039;-73
2022/08/17 07:43:38;;;;;;;17.45;9.10;;;19.50;99.90;;;;;;5084288;28;20040;-73
2022/08/17 07:49:07;;;;;;;16.55;8.40;;;19.70;99.90;;;;;;5082396;28;20417;-72
2022/08/17 07:51:38;;;;;;;17.95;8.27;;;19.70;99.90;;;;;;5083445;28;20043;-73
2022/08/17 07:54:24;;;;;;;16.60;7.75;;;19.80;99.90;;;;;;5079369;28;20039;-72
2022/08/17 07:56:56;;;;;;;16.58;7.55;;;19.90;99.90;;;;;;5092901;28;20048;-72
2022/08/17 07:59:25;;;;;;;16.13;7.95;;;19.90;99.90;;;;;;5098383;28;20031;-73
2022/08/17 08:01:57;;;;;;;19.58;8.68;;;19.90;99.90;;;;;;5084486;28;20319;-73
2022/08/17 08:04:44;;;;;;;17.25;8.30;;;20.00;99.90;;;;;;5084239;28;20040;-73
2022/08/17 08:07:16;;;;;;;15.90;7.70;;;20.00;99.90;;;;;;5081504;28;20321;-69
2022/08/17 08:10:00;;;;;;;17.13;8.02;;;20.00;99.90;;;;;;5068126;28;20036;-72
2022/08/17 08:12:48;;;;;;;17.35;7.85;;;20.00;99.90;;;;;;5082942;28;20146;-72
2022/08/17 08:15:18;;;;;;;16.13;8.18;;;20.00;99.90;;;;;;5067120;28;20036;-72
2022/08/17 08:17:48;;;;;;;16.35;8.00;;;20.10;99.90;;;;;;5080985;28;20048;-73
2022/08/17 08:20:14;;;;;;;16.25;8.10;;;20.10;99.90;;;;;;5088303;28;20047;-72
2022/08/17 08:23:01;;;;;;;14.50;7.82;;;20.10;99.90;;;;;;5079548;28;20035;-72
2022/08/17 08:25:55;;;;;;;15.02;7.68;;;20.20;99.90;;;;;;5094690;28;20055;-72
2022/08/17 08:28:36;;;;;;;16.05;7.82;;;20.30;99.90;;;;;;5083581;28;20047;-72
2022/08/17 08:31:24;;;;;;;19.17;9.40;;;20.30;99.90;;;;;;5087342;28;20051;-73
2022/08/17 08:34:01;;;;;;;16.02;7.95;;;20.50;99.90;;;;;;5075970;28;20108;-73
2022/08/17 08:36:49;;;;;;;19.75;8.45;;;20.60;99.90;;;;;;5083478;28;20435;-73
2022/08/17 08:39:23;;;;;;;21.15;8.95;;;20.70;99.90;;;;;;5081672;28;20040;-73
2022/08/17 08:41:57;;;;;;;14.25;7.80;;;20.80;99.90;;;;;;5097539;28;23158;-73
2022/08/17 08:45:15;;;;;;;14.45;7.22;;;20.90;99.90;;;;;;5082926;28;20043;-73
2022/08/17 08:47:59;;;;;;;16.20;7.82;;;20.90;99.90;;;;;;5018532;28;20086;-71
2022/08/17 08:50:36;;;;;;;15.43;7.60;;;20.90;99.90;;;;;;5097223;28;20046;-73
2022/08/17 08:53:10;;;;;;;15.75;8.23;;;21.00;99.90;;;;;;5091095;28;20056;-73
2022/08/17 08:55:50;;;;;;;20.40;8.93;;;21.10;99.90;;;;;;5085351;28;20048;-72
2022/08/17 08:58:19;;;;;;;18.33;8.38;;;21.10;99.90;;;;;;5085552;28;20101;-72
2022/08/17 09:00:52;;;;;;;16.92;7.93;;;21.10;99.90;;;;;;5084950;28;20378;-73
2022/08/17 09:03:22;;;;;;;14.07;7.47;;;21.10;99.90;;;;;;5062745;28;20366;-73
2022/08/17 09:06:02;;;;;;;15.52;6.88;;;21.10;99.90;;;;;;5080162;28;20464;-72
2022/08/17 09:08:55;;;;;;;13.50;6.63;;;21.00;99.90;;;;;;5095327;28;20039;-73
2022/08/17 09:11:34;;;;;;;14.98;6.85;;;20.90;99.90;;;;;;5096944;28;20097;-73
2022/08/17 09:14:46;;;;;;;18.80;7.63;;;20.90;99.90;;;;;;5084023;28;20032;-72
2022/08/17 09:17:24;;;;;;;16.60;8.43;;;20.90;99.90;;;;;;5049011;28;20384;-73
2022/08/17 09:20:01;;;;;;;15.30;7.82;;;20.90;99.90;;;;;;5080548;28;20135;-73
2022/08/17 09:22:48;;;;;;;15.63;7.43;;;20.90;99.90;;;;;;5081934;28;20095;-73
2022/08/17 09:25:27;;;;;;;16.48;7.63;;;21.00;99.90;;;;;;5074325;28;20051;-73
2022/08/17 09:28:02;;;;;;;18.90;7.60;;;21.00;99.90;;;;;;5087665;28;20681;-73
2022/08/17 09:30:39;;;;;;;17.73;7.47;;;21.00;99.90;;;;;;5087728;28;20044;-73
2022/08/17 09:33:07;;;;;;;13.77;7.75;;;21.10;99.90;;;;;;5072831;28;20040;-72
2022/08/17 09:35:50;;;;;;;12.43;6.55;;;21.10;99.90;;;;;;5086266;28;20040;-72
2022/08/17 09:38:21;;;;;;;16.88;7.65;;;21.10;99.90;;;;;;5088793;28;20027;-73
2022/08/17 09:41:19;;;;;;;13.63;7.20;;;21.00;99.90;;;;;;5084255;28;20085;-73
2022/08/17 09:44:17;;;;;;;15.65;7.90;;;21.00;99.90;;;;;;5087607;28;20086;-72
2022/08/17 09:46:54;;;;;;;13.77;7.43;;;21.00;99.90;;;;;;5066951;28;20047;-73
2022/08/17 09:49:37;;;;;;;15.77;7.95;;;21.00;99.90;;;;;;5066649;28;20047;-73
2022/08/17 09:52:07;;;;;;;16.90;8.43;;;21.00;99.90;;;;;;5079293;28;20040;-72
2022/08/17 09:54:37;;;;;;;14.93;8.55;;;21.00;99.90;;;;;;5082989;28;20032;-73
2022/08/17 09:57:13;;;;;;;17.73;8.32;;;21.00;99.90;;;;;;5088021;28;20040;-73
2022/08/17 10:00:46;;;;;;;17.48;8.80;;;21.10;99.90;;;;;;5068764;28;20032;-73
2022/08/17 10:03:29;;;;;;;15.70;8.25;;;21.10;99.90;;;;;;5069656;28;20032;-73
2022/08/17 10:06:08;;;;;;;20.80;9.65;;;21.20;99.90;;;;;;5089468;28;20180;-73
2022/08/17 10:09:05;;;;;;;18.38;8.68;;;21.20;99.90;;;;;;5087138;28;20035;-72
2022/08/17 10:15:21;;;;;;;16.20;7.88;;;21.30;99.90;;;;;;5086397;28;20114;-72
2022/08/17 10:18:02;;;;;;;18.48;8.00;;;21.40;99.90;;;;;;5023510;28;20726;-73
2022/08/17 10:20:45;;;;;;;13.63;7.28;;;21.40;99.90;;;;;;5087319;27;20052;-72
2022/08/17 10:26:17;;;;;;;16.85;8.15;;;21.50;99.90;;;;;;5080996;28;20497;-73
2022/08/17 10:29:02;;;;;;;15.43;7.57;;;21.50;99.90;;;;;;5071201;28;20072;-72
2022/08/17 10:31:39;;;;;;;14.93;7.03;;;21.60;99.90;;;;;;5067869;28;20442;-73
2022/08/17 10:34:40;;;;;;;14.80;7.80;;;21.50;99.90;;;;;;5087382;28;20059;-73
2022/08/17 10:37:33;;;;;;;15.35;7.50;;;21.60;99.90;;;;;;5084363;28;20044;-72
2022/08/17 10:40:17;;;;;;;15.85;8.10;;;21.60;99.90;;;;;;5086926;28;20039;-73
2022/08/17 10:42:49;;;;;;;16.20;8.10;;;21.60;99.90;;;;;;5084184;28;20397;-74
2022/08/17 10:45:20;;;;;;;17.17;7.80;;;21.60;99.90;;;;;;5083346;28;20044;-73
2022/08/17 10:48:06;;;;;;;17.02;8.07;;;21.70;99.90;;;;;;5068066;28;20039;-72
2022/08/17 10:50:48;;;;;;;;;;;21.70;99.90;;;;;;5070985;28;20074;-73
2022/08/17 10:53:52;;;;;;;14.95;7.43;;;21.70;99.90;;;;;;5075080;28;19921;-73
2022/08/17 10:56:21;;;;;;;17.90;7.78;;;21.70;99.90;;;;;;5085448;28;20111;-73
2022/08/17 10:58:53;;;;;;;16.80;7.88;;;21.70;99.90;;;;;;5081025;28;20118;-74
2022/08/17 11:01:42;;;;;;;13.90;7.07;;;21.80;99.90;;;;;;5087152;28;20319;-74
2022/08/17 11:04:16;;;;;;;13.25;6.65;;;21.80;99.90;;;;;;5035379;28;20051;-73
2022/08/17 11:07:04;;;;;;;14.13;6.97;;;21.90;99.90;;;;;;5083464;28;20508;-74
2022/08/17 11:09:53;;;;;;;14.18;7.25;;;22.00;99.90;;;;;;5064519;28;20155;-74
2022/08/17 11:12:37;;;;;;;13.43;6.65;;;22.00;99.90;;;;;;5079750;28;20417;-74
2022/08/17 11:15:31;;;;;;;15.25;7.43;;;22.10;99.90;;;;;;5080783;28;21503;-74
2022/08/17 11:18:19;;;;;;;14.50;7.50;;;22.20;99.90;;;;;;5087677;28;20028;-73
2022/08/17 11:20:53;;;;;;;14.07;6.63;;;22.20;99.90;;;;;;5066580;28;20147;-74
2022/08/17 11:23:49;;;;;;;12.57;6.25;;;22.20;99.90;;;;;;5084397;28;20303;-74
2022/08/17 11:26:28;;;;;;;14.82;6.55;;;22.20;99.90;;;;;;5087597;28;20044;-73
2022/08/17 11:29:02;;;;;;;15.50;7.90;;;22.30;99.90;;;;;;5073684;28;20039;-73
2022/08/17 11:31:41;;;;;;;14.88;7.90;;;22.40;99.90;;;;;;5084330;28;20382;-73
2022/08/17 11:34:25;;;;;;;16.45;7.75;;;22.40;99.90;;;;;;5082287;28;20059;-73
2022/08/17 11:37:12;;;;;;;13.45;7.20;;;22.40;99.90;;;;;;5091819;28;20508;-73
2022/08/17 11:40:19;;;;;;;17.80;7.22;;;22.30;99.90;;;;;;5066447;28;20033;-73
2022/08/17 11:42:48;;;;;;;13.27;6.70;;;22.30;99.90;;;;;;5058812;28;20251;-73
2022/08/17 11:45:29;;;;;;;13.40;6.72;;;22.30;99.90;;;;;;5063674;28;20070;-73
2022/08/17 11:53:53;;;;;;;12.10;6.78;;;22.40;99.90;;;;;;5082318;28;20056;-73
2022/08/17 11:56:42;;;;;;;15.13;7.68;;;22.50;99.90;;;;;;5065990;28;20050;-73
2022/08/17 11:59:40;;;;;;;11.05;5.70;;;22.50;99.90;;;;;;5082162;28;20032;-73
2022/08/17 12:02:31;;;;;;;11.35;6.25;;;22.50;99.90;;;;;;5060964;28;20059;-73
2022/08/17 12:05:26;;;;;;;10.02;6.00;;;22.50;99.90;;;;;;5073989;28;20048;-73
2022/08/17 12:08:06;;;;;;;11.18;6.30;;;22.60;99.90;;;;;;5078043;28;20042;-73
2022/08/17 12:10:35;;;;;;;9.75;5.25;;;22.60;99.90;;;;;;5085415;28;20046;-73
2022/08/17 12:13:12;;;;;;;9.15;5.15;;;22.60;99.90;;;;;;5082293;28;20036;-73
2022/08/17 12:15:48;;;;;;;7.90;5.25;;;22.60;99.90;;;;;;5082559;28;20156;-73
2022/08/17 12:18:32;;;;;;;11.43;5.88;;;22.70;99.90;;;;;;5075509;28;21332;-73
2022/08/17 12:21:36;;;;;;;8.98;4.85;;;22.60;99.90;;;;;;5073441;28;20060;-73
2022/08/17 12:24:30;;;;;;;9.13;4.97;;;22.60;99.90;;;;;;5081250;28;20393;-73
2022/08/17 12:26:59;;;;;;;10.30;5.43;;;22.70;99.90;;;;;;5072165;28;20040;-73
2022/08/17 12:29:25;;;;;;;13.98;6.57;;;22.60;99.90;;;;;;5091615;28;20781;-75
2022/08/17 12:31:53;;;;;;;10.60;5.63;;;22.60;99.90;;;;;;5082085;28;20032;-70
2022/08/17 12:34:25;;;;;;;13.35;6.60;;;22.70;99.90;;;;;;5064398;28;20032;-73
2022/08/17 12:36:57;;;;;;;10.25;5.85;;;22.70;99.90;;;;;;5073554;28;20444;-74
2022/08/17 12:39:25;;;;;;;12.18;6.57;;;22.80;99.90;;;;;;5073482;28;20438;-73
2022/08/17 12:41:55;;;;;;;14.80;6.07;;;22.80;99.90;;;;;;5089754;28;20055;-73
2022/08/17 12:44:30;;;;;;;11.93;6.05;;;22.80;99.90;;;;;;5074309;28;20032;-74
2022/08/17 12:46:59;;;;;;;;;;;22.80;99.90;;;;;;5069864;28;20039;-73
2022/08/17 12:49:34;;;;;;;11.10;6.13;;;22.80;99.60;;;;;;5089595;28;20209;-73
2022/08/17 12:52:16;;;;;;;9.93;5.72;;;22.90;99.90;;;;;;5090758;28;20062;-73
2022/08/17 12:55:04;;;;;;;12.45;6.80;;;22.90;99.90;;;;;;5057398;28;20046;-73
2022/08/17 12:57:38;;;;;;;12.38;5.80;;;22.90;99.90;;;;;;5075278;28;20056;-74
2022/08/17 13:00:16;;;;;;;11.57;6.47;;;23.00;99.90;;;;;;5078993;28;20082;-73
2022/08/17 13:02:56;;;;;;;10.40;6.25;;;23.00;99.90;;;;;;5059206;28;20044;-73
2022/08/17 13:05:52;;;;;;;10.38;5.32;;;23.10;99.90;;;;;;5076204;28;20497;-73
2022/08/17 13:08:23;;;;;;;9.15;5.40;;;23.10;99.90;;;;;;5057800;28;20162;-74
2022/08/17 13:10:58;;;;;;;10.95;6.40;;;23.10;99.90;;;;;;5070795;28;20262;-73
2022/08/17 13:13:28;;;;;;;;;;;23.10;99.90;;;;;;5071814;28;20089;-73
2022/08/17 13:15:56;;;;;;;11.50;6.03;;;23.10;99.60;;;;;;5075553;28;19931;-73
2022/08/17 13:18:46;;;;;;;10.30;5.88;;;23.20;99.90;;;;;;5074448;28;20036;-73
2022/08/17 13:21:26;;;;;;;9.88;5.47;;;23.20;99.90;;;;;;5090325;28;20138;-73
2022/08/17 13:24:16;;;;;;;12.65;5.70;;;23.20;99.90;;;;;;5088530;28;20079;-73
2022/08/17 13:27:11;;;;;;;10.73;6.50;;;23.30;99.90;;;;;;5090315;28;20078;-74
2022/08/17 13:29:45;;;;;;;13.15;6.88;;;23.30;99.90;;;;;;5080833;28;20383;-73
2022/08/17 13:32:14;;;;;;;15.25;7.15;;;23.40;99.90;;;;;;5061114;28;20392;-73
2022/08/17 13:34:44;;;;;;;12.30;6.78;;;23.40;99.90;;;;;;5071909;28;20089;-73
2022/08/17 13:37:25;;;;;;;11.80;6.13;;;23.40;99.90;;;;;;5086243;28;20161;-73
2022/08/17 13:39:53;;;;;;;15.02;6.53;;;23.30;99.90;;;;;;5088358;28;20531;-73
2022/08/17 13:42:40;;;;;;;10.65;6.32;;;23.30;99.90;;;;;;5089847;28;20357;-73
2022/08/17 13:48:29;;;;;;;12.27;6.22;;;23.20;99.90;;;;;;5072216;28;20185;-73
2022/08/17 13:50:57;;;;;;;10.18;6.78;;;23.20;99.90;;;;;;5068421;28;20055;-74